createdAt,value
2022-08-03T00:00:24.186Z,74.90
2022-08-03T00:02:51.024Z,74.90
2022-08-03T00:05:17.842Z,74.90
2022-08-03T00:07:44.523Z,74.90
2022-08-03T00:10:12.547Z,74.90
2022-08-03T00:12:39.234Z,75.00
2022-08-03T00:15:11.298Z,75.00
2022-08-03T00:17:52.782Z,75.00
2022-08-03T00:20:21.329Z,75.00
2022-08-03T00:22:48.339Z,75.00
2022-08-03T00:25:15.023Z,74.90
2022-08-03T00:27:41.761Z,75.00
2022-08-03T00:30:08.662Z,75.00
2022-08-03T00:32:35.368Z,75.00
2022-08-03T00:35:08.099Z,74.90
2022-08-03T00:37:40.670Z,74.90
2022-08-03T00:40:10.287Z,75.00
2022-08-03T00:42:46.388Z,75.00
2022-08-03T00:45:13.131Z,74.80
2022-08-03T00:47:39.813Z,75.00
2022-08-03T00:50:06.685Z,74.90
2022-08-03T00:52:34.471Z,74.90
2022-08-03T00:55:01.547Z,74.90
2022-08-03T00:57:29.605Z,74.90
2022-08-03T00:59:56.243Z,74.80
2022-08-03T01:02:23.002Z,75.10
2022-08-03T01:04:49.659Z,74.80
2022-08-03T01:07:23.453Z,75.00
2022-08-03T01:10:01.240Z,74.90
2022-08-03T01:12:31.287Z,74.90
2022-08-03T01:15:00.480Z,74.90
2022-08-03T01:17:50.510Z,75.00
2022-08-03T01:20:18.493Z,74.90
2022-08-03T01:22:59.691Z,75.00
2022-08-03T01:25:36.378Z,75.00
2022-08-03T01:28:23.646Z,75.00
2022-08-03T01:30:52.306Z,75.00
2022-08-03T01:33:20.294Z,75.00
2022-08-03T01:36:00.666Z,75.10
2022-08-03T01:38:29.311Z,75.10
2022-08-03T01:40:56.627Z,75.20
2022-08-03T01:43:55.339Z,75.20
2022-08-03T01:46:12.039Z,75.10
2022-08-03T01:48:39.831Z,75.20
2022-08-03T01:51:08.062Z,75.30
2022-08-03T01:53:35.307Z,75.10
2022-08-03T01:56:03.075Z,75.20
2022-08-03T01:58:29.843Z,75.90
2022-08-03T02:01:01.103Z,75.50
2022-08-03T02:03:29.568Z,75.20
2022-08-03T02:06:18.138Z,75.40
2022-08-03T02:08:45.258Z,76.00
2022-08-03T02:11:12.654Z,75.30
2022-08-03T02:13:39.607Z,75.30
2022-08-03T02:16:07.165Z,75.20
2022-08-03T02:18:34.079Z,75.30
2022-08-03T02:21:02.245Z,75.30
2022-08-03T02:23:38.044Z,75.80
2022-08-03T02:26:06.286Z,76.60
2022-08-03T02:28:35.309Z,75.40
2022-08-03T02:31:04.458Z,75.40
2022-08-03T02:33:33.051Z,75.40
2022-08-03T02:36:01.081Z,75.80
2022-08-03T02:38:36.082Z,75.40
2022-08-03T02:41:05.262Z,75.40
2022-08-03T02:43:56.805Z,75.40
2022-08-03T02:46:20.379Z,75.40
2022-08-03T02:48:48.900Z,75.40
2022-08-03T02:51:17.089Z,75.40
2022-08-03T02:53:45.235Z,75.50
2022-08-03T02:56:12.840Z,75.40
2022-08-03T02:58:40.287Z,75.40
2022-08-03T03:01:07.160Z,75.30
2022-08-03T03:03:39.990Z,75.40
2022-08-03T03:06:12.711Z,76.00
2022-08-03T03:08:42.202Z,75.50
2022-08-03T03:11:09.587Z,75.40
2022-08-03T03:13:36.714Z,75.30
2022-08-03T03:16:04.856Z,75.30
2022-08-03T03:18:32.253Z,75.30
2022-08-03T03:21:00.676Z,75.30
2022-08-03T03:23:27.949Z,75.30
2022-08-03T03:25:56.108Z,75.40
2022-08-03T03:28:23.854Z,75.30
2022-08-03T03:30:52.715Z,75.40
2022-08-03T03:33:20.499Z,75.30
2022-08-03T03:35:47.435Z,75.40
2022-08-03T03:38:14.221Z,75.30
2022-08-03T03:40:41.123Z,75.30
2022-08-03T03:43:08.265Z,75.30
2022-08-03T03:45:35.678Z,75.30
2022-08-03T03:48:03.718Z,75.30
2022-08-03T03:50:32.148Z,76.30
2022-08-03T03:52:59.098Z,75.40
2022-08-03T03:55:25.798Z,75.30
2022-08-03T03:57:52.472Z,75.40
2022-08-03T04:00:19.753Z,75.30
2022-08-03T04:02:46.616Z,75.40
2022-08-03T04:05:32.589Z,75.30
2022-08-03T04:08:19.248Z,75.30
2022-08-03T04:11:01.127Z,75.20
2022-08-03T04:13:31.227Z,75.10
2022-08-03T04:15:58.428Z,75.10
2022-08-03T04:18:26.938Z,75.10
2022-08-03T04:20:55.403Z,75.70
2022-08-03T04:23:24.253Z,75.10
2022-08-03T04:25:53.411Z,75.00
2022-08-03T04:28:30.604Z,75.00
2022-08-03T04:30:59.839Z,75.00
2022-08-03T04:33:29.373Z,75.00
2022-08-03T04:36:01.861Z,75.00
2022-08-03T04:38:31.754Z,75.00
2022-08-03T04:40:59.476Z,76.90
2022-08-03T04:43:27.007Z,75.00
2022-08-03T04:45:54.812Z,76.40
2022-08-03T04:48:21.561Z,75.00
2022-08-03T04:50:48.541Z,75.00
2022-08-03T04:53:16.332Z,75.40
2022-08-03T04:55:43.072Z,75.00
2022-08-03T04:58:09.770Z,75.00
2022-08-03T05:00:36.479Z,74.90
2022-08-03T05:03:03.239Z,74.90
2022-08-03T05:05:49.613Z,75.00
2022-08-03T05:08:16.608Z,75.00
2022-08-03T05:10:47.774Z,75.00
2022-08-03T05:13:14.635Z,75.00
2022-08-03T05:15:44.787Z,75.10
2022-08-03T05:18:14.233Z,75.10
2022-08-03T05:20:41.313Z,75.60
2022-08-03T05:23:08.039Z,75.10
2022-08-03T05:25:34.751Z,76.10
2022-08-03T05:28:01.517Z,75.10
2022-08-03T05:30:34.180Z,76.40
2022-08-03T05:33:04.602Z,74.90
2022-08-03T05:35:55.737Z,75.00
2022-08-03T05:38:27.998Z,75.00
2022-08-03T05:40:57.488Z,75.20
2022-08-03T05:43:43.173Z,75.90
2022-08-03T05:46:11.798Z,75.10
2022-08-03T05:48:39.490Z,75.10
2022-08-03T05:51:07.776Z,75.10
2022-08-03T05:53:34.797Z,75.20
2022-08-03T05:56:13.195Z,75.20
2022-08-03T05:58:52.497Z,75.20
2022-08-03T06:01:21.815Z,75.30
2022-08-03T06:03:49.146Z,75.30
2022-08-03T06:06:15.971Z,75.30
2022-08-03T06:08:43.663Z,75.30
2022-08-03T06:11:10.435Z,75.40
2022-08-03T06:13:37.527Z,75.40
2022-08-03T06:16:04.561Z,75.50
2022-08-03T06:18:31.400Z,75.60
2022-08-03T06:20:58.116Z,75.60
2022-08-03T06:23:53.926Z,75.60
2022-08-03T06:26:23.185Z,75.60
2022-08-03T06:28:51.338Z,75.50
2022-08-03T06:31:20.493Z,75.70
2022-08-03T06:34:30.627Z,75.80
2022-08-03T06:36:33.913Z,75.80
2022-08-03T06:39:00.980Z,75.80
2022-08-03T06:41:28.024Z,75.80
2022-08-03T06:44:02.999Z,75.90
2022-08-03T06:46:31.110Z,75.70
2022-08-03T06:48:57.815Z,75.80
2022-08-03T06:52:03.687Z,75.80
2022-08-03T06:54:12.353Z,76.00
2022-08-03T06:56:39.024Z,76.10
2022-08-03T06:59:05.718Z,76.20
2022-08-03T07:01:32.428Z,76.90
2022-08-03T07:04:00.565Z,76.20
2022-08-03T07:06:27.403Z,76.20
2022-08-03T07:08:58.941Z,76.30
2022-08-03T07:11:26.443Z,76.30
2022-08-03T07:13:53.192Z,76.30
2022-08-03T07:16:20.576Z,76.30
2022-08-03T07:18:47.388Z,76.40
2022-08-03T07:21:14.295Z,76.30
2022-08-03T07:23:40.971Z,76.30
2022-08-03T07:26:07.635Z,76.40
2022-08-03T07:28:34.351Z,76.40
2022-08-03T07:31:01.015Z,76.60
2022-08-03T07:33:27.716Z,76.40
2022-08-03T07:35:54.510Z,76.50
2022-08-03T07:38:21.381Z,76.30
2022-08-03T07:40:48.193Z,76.20
2022-08-03T07:43:14.887Z,76.20
2022-08-03T07:45:41.635Z,76.40
2022-08-03T07:48:12.159Z,76.20
2022-08-03T07:50:39.383Z,76.10
2022-08-03T07:53:06.153Z,76.00
2022-08-03T07:55:32.971Z,76.00
2022-08-03T07:58:07.641Z,75.50
2022-08-03T08:00:34.614Z,75.00
2022-08-03T08:03:01.466Z,75.50
2022-08-03T08:05:28.446Z,75.70
2022-08-03T08:07:55.598Z,75.50
2022-08-03T08:10:22.601Z,75.60
2022-08-03T08:12:49.328Z,75.80
2022-08-03T08:15:16.176Z,75.70
2022-08-03T08:17:43.553Z,75.20
2022-08-03T08:20:11.382Z,75.60
2022-08-03T08:22:38.079Z,75.70
2022-08-03T08:25:07.379Z,75.80
2022-08-03T08:28:29.014Z,75.60
2022-08-03T08:30:21.800Z,75.50
2022-08-03T08:32:49.103Z,75.40
2022-08-03T08:35:16.582Z,75.40
2022-08-03T08:37:43.455Z,75.50
2022-08-03T08:40:20.333Z,75.50
2022-08-03T08:42:57.948Z,75.30
2022-08-03T08:45:25.139Z,75.00
2022-08-03T08:47:54.726Z,74.80
2022-08-03T08:50:28.123Z,75.30
2022-08-03T08:52:55.515Z,75.50
2022-08-03T08:55:23.244Z,76.50
2022-08-03T08:57:50.991Z,75.00
2022-08-03T09:00:17.833Z,75.00
2022-08-03T09:02:45.145Z,74.90
2022-08-03T09:05:13.282Z,75.00
2022-08-03T09:07:40.567Z,75.30
2022-08-03T09:10:12.618Z,74.90
2022-08-03T09:12:43.545Z,74.60
2022-08-03T09:15:20.633Z,74.80
2022-08-03T09:17:51.107Z,74.80
2022-08-03T09:20:19.158Z,74.90
2022-08-03T09:23:24.968Z,74.70
2022-08-03T09:25:58.196Z,74.80
2022-08-03T09:29:00.407Z,74.90
2022-08-03T09:31:20.256Z,74.80
2022-08-03T09:33:48.039Z,74.80
2022-08-03T09:36:34.484Z,75.50
2022-08-03T09:39:03.380Z,74.70
2022-08-03T09:41:30.043Z,75.00
2022-08-03T09:43:57.289Z,75.00
2022-08-03T09:46:23.981Z,74.20
2022-08-03T09:48:50.682Z,74.50
2022-08-03T09:51:33.323Z,75.10
2022-08-03T09:54:15.025Z,74.80
2022-08-03T09:56:45.618Z,75.90
2022-08-03T09:59:13.067Z,75.00
2022-08-03T10:01:41.899Z,74.90
2022-08-03T10:04:15.169Z,74.90
2022-08-03T10:06:43.147Z,74.70
2022-08-03T10:09:14.072Z,74.60
2022-08-03T10:11:42.407Z,74.80
2022-08-03T10:14:10.529Z,74.80
2022-08-03T10:16:38.549Z,74.80
2022-08-03T10:19:06.081Z,74.60
2022-08-03T10:21:34.651Z,75.40
2022-08-03T10:24:05.329Z,74.80
2022-08-03T10:26:36.302Z,74.70
2022-08-03T10:29:04.178Z,74.80
2022-08-03T10:31:54.485Z,74.80
2022-08-03T10:34:26.089Z,74.80
2022-08-03T10:36:53.750Z,74.80
2022-08-03T10:39:22.147Z,75.10
2022-08-03T10:41:49.633Z,76.40
2022-08-03T10:44:20.819Z,74.90
2022-08-03T10:46:48.708Z,74.90
2022-08-03T10:49:19.048Z,74.90
2022-08-03T10:52:00.955Z,76.20
2022-08-03T10:54:35.062Z,75.20
2022-08-03T10:57:20.511Z,74.90
2022-08-03T10:59:47.176Z,74.90
2022-08-03T11:02:17.022Z,74.60
2022-08-03T11:04:45.156Z,73.90
2022-08-03T11:07:19.419Z,75.20
2022-08-03T11:09:48.553Z,74.80
2022-08-03T11:12:21.926Z,73.30
2022-08-03T11:14:59.219Z,72.10
2022-08-03T11:17:25.932Z,71.60
2022-08-03T11:19:56.845Z,71.60
2022-08-03T11:22:25.164Z,73.40
2022-08-03T11:24:54.119Z,72.50
2022-08-03T11:27:22.727Z,72.10
2022-08-03T11:29:57.199Z,72.60
2022-08-03T11:32:46.701Z,72.30
2022-08-03T11:35:21.555Z,73.00
2022-08-03T11:38:03.345Z,73.40
2022-08-03T11:40:35.067Z,73.50
2022-08-03T11:43:01.998Z,73.70
2022-08-03T11:45:28.770Z,74.00
2022-08-03T11:47:55.795Z,74.20
2022-08-03T11:50:22.575Z,74.10
2022-08-03T11:52:49.635Z,74.20
2022-08-03T11:55:18.880Z,74.30
2022-08-03T11:59:13.118Z,74.30
2022-08-03T12:00:33.897Z,74.50
2022-08-03T12:03:02.110Z,74.00
2022-08-03T12:05:35.693Z,75.20
2022-08-03T12:08:06.348Z,73.80
2022-08-03T12:10:33.758Z,74.10
2022-08-03T12:13:01.864Z,74.20
2022-08-03T12:15:29.577Z,74.10
2022-08-03T12:17:57.941Z,74.40
2022-08-03T12:20:34.920Z,74.80
2022-08-03T12:23:04.346Z,74.30
2022-08-03T12:25:39.187Z,74.20
2022-08-03T12:28:37.266Z,74.20
2022-08-03T12:31:06.364Z,74.40
2022-08-03T12:33:33.472Z,74.30
2022-08-03T12:36:04.315Z,75.20
2022-08-03T12:38:32.542Z,74.60
2022-08-03T12:41:07.109Z,74.60
2022-08-03T12:43:36.682Z,74.40
2022-08-03T12:46:13.698Z,74.70
2022-08-03T12:48:59.774Z,74.70
2022-08-03T12:51:27.555Z,74.60
2022-08-03T12:53:54.871Z,75.50
2022-08-03T12:56:21.855Z,74.50
2022-08-03T12:58:48.615Z,74.70
2022-08-03T13:01:15.479Z,74.60
2022-08-03T13:03:45.889Z,74.50
2022-08-03T13:06:18.131Z,75.10
2022-08-03T13:08:46.059Z,74.60
2022-08-03T13:11:22.902Z,74.50
2022-08-03T13:14:09.688Z,74.50
2022-08-03T13:16:44.253Z,74.70
2022-08-03T13:19:15.246Z,74.60
2022-08-03T13:22:01.748Z,74.60
2022-08-03T13:24:30.510Z,74.40
2022-08-03T13:26:58.438Z,74.60
2022-08-03T13:29:25.115Z,74.60
2022-08-03T13:31:52.579Z,74.90
2022-08-03T13:34:22.961Z,73.80
2022-08-03T13:37:08.417Z,74.30
2022-08-03T13:39:57.994Z,74.10
2022-08-03T13:42:23.210Z,74.40
2022-08-03T13:44:49.902Z,74.50
2022-08-03T13:47:16.823Z,74.50
2022-08-03T13:49:59.404Z,74.50
2022-08-03T13:52:27.959Z,74.10
2022-08-03T13:54:54.718Z,74.50
2022-08-03T13:58:04.969Z,74.50
2022-08-03T14:00:08.651Z,75.30
2022-08-03T14:02:35.550Z,74.60
2022-08-03T14:05:02.326Z,74.60
2022-08-03T14:07:28.998Z,74.30
2022-08-03T14:09:55.692Z,74.50
2022-08-03T14:12:22.472Z,74.70
2022-08-03T14:14:49.158Z,74.70
2022-08-03T14:17:16.527Z,74.90
2022-08-03T14:19:52.601Z,74.90
2022-08-03T14:22:20.503Z,74.90
2022-08-03T14:24:47.206Z,74.90
2022-08-03T14:27:13.908Z,74.90
2022-08-03T14:29:40.585Z,75.00
2022-08-03T14:32:11.140Z,75.20
2022-08-03T14:34:39.545Z,75.00
2022-08-03T14:37:06.277Z,75.20
2022-08-03T14:42:20.497Z,74.70
2022-08-03T14:44:47.581Z,74.80
2022-08-03T14:47:14.719Z,74.70
2022-08-03T14:50:31.359Z,74.70
2022-08-03T14:52:28.340Z,74.60
2022-08-03T14:54:55.025Z,74.70
2022-08-03T14:57:21.886Z,74.80
2022-08-03T14:59:56.453Z,74.70
2022-08-03T15:02:25.062Z,75.20
2022-08-03T15:04:52.178Z,74.70
2022-08-03T15:07:19.335Z,74.70
2022-08-03T15:09:46.278Z,74.90
2022-08-03T15:12:13.097Z,74.80
2022-08-03T15:14:39.790Z,74.90
2022-08-03T15:17:06.572Z,74.70
2022-08-03T15:20:01.364Z,74.50
2022-08-03T15:22:20.653Z,74.80
2022-08-03T15:24:51.978Z,74.60
2022-08-03T15:27:18.897Z,74.70
2022-08-03T15:30:06.029Z,74.50
2022-08-03T15:32:33.644Z,74.40
2022-08-03T15:35:00.752Z,74.60
2022-08-03T15:37:27.900Z,74.50
2022-08-03T15:39:59.009Z,74.80
2022-08-03T15:42:30.785Z,74.90
2022-08-03T15:44:57.521Z,74.90
2022-08-03T15:47:24.425Z,74.80
2022-08-03T15:49:51.167Z,74.60
2022-08-03T15:52:17.823Z,74.60
2022-08-03T15:54:44.501Z,74.30
2022-08-03T15:57:11.226Z,74.50
2022-08-03T15:59:37.909Z,74.40
2022-08-03T16:02:04.704Z,74.50
2022-08-03T16:04:31.396Z,74.70
2022-08-03T16:06:58.073Z,74.60
2022-08-03T16:09:42.153Z,75.10
2022-08-03T16:12:15.604Z,74.80
2022-08-03T16:14:51.735Z,74.90
2022-08-03T16:17:19.784Z,74.80
2022-08-03T16:19:46.681Z,74.60
2022-08-03T16:22:14.509Z,74.60
2022-08-03T16:24:41.415Z,74.60
2022-08-03T16:27:17.369Z,74.40
2022-08-03T16:29:54.991Z,74.60
2022-08-03T16:32:21.665Z,74.60
2022-08-03T16:34:48.401Z,74.50
2022-08-03T16:37:37.634Z,74.50
2022-08-03T16:40:02.384Z,74.80
2022-08-03T16:42:29.146Z,74.80
2022-08-03T16:44:55.865Z,74.90
2022-08-03T16:47:22.999Z,74.70
2022-08-03T16:49:54.628Z,74.80
2022-08-03T16:52:23.312Z,74.60
2022-08-03T16:54:53.062Z,74.90
2022-08-03T16:57:56.651Z,74.60
2022-08-03T17:00:12.004Z,74.80
2022-08-03T17:02:42.868Z,74.60
2022-08-03T17:05:14.865Z,74.50
2022-08-03T17:07:41.682Z,74.90
2022-08-03T17:10:14.055Z,74.60
2022-08-03T17:12:40.730Z,75.00
2022-08-03T17:15:10.416Z,74.90
2022-08-03T17:17:47.608Z,74.90
2022-08-03T17:20:21.531Z,74.90
2022-08-03T17:23:01.449Z,74.90
2022-08-03T17:26:01.825Z,74.90
2022-08-03T17:28:49.514Z,74.90
2022-08-03T17:31:31.725Z,74.90
2022-08-03T17:34:06.918Z,74.90
2022-08-03T17:37:02.209Z,75.00
2022-08-03T17:39:35.841Z,74.70
2022-08-03T17:42:30.296Z,74.90
2022-08-03T17:44:57.771Z,74.90
2022-08-03T17:47:29.323Z,75.20
2022-08-03T17:50:24.518Z,74.90
2022-08-03T17:53:07.855Z,75.00
2022-08-03T17:55:56.103Z,75.00
2022-08-03T17:58:35.667Z,75.10
2022-08-03T18:02:00.555Z,75.20
2022-08-03T18:04:11.854Z,75.10
2022-08-03T18:06:56.417Z,75.10
2022-08-03T18:10:04.620Z,75.10
2022-08-03T18:12:14.518Z,75.20
2022-08-03T18:14:59.188Z,75.20
2022-08-03T18:17:55.567Z,75.20
2022-08-03T18:20:31.055Z,75.30
2022-08-03T18:23:04.461Z,75.30
2022-08-03T18:25:42.754Z,75.40
2022-08-03T18:28:14.258Z,75.40
2022-08-03T18:30:53.336Z,75.50
2022-08-03T18:34:16.628Z,75.60
2022-08-03T18:36:11.047Z,75.40
2022-08-03T18:38:46.506Z,75.40
2022-08-03T18:41:22.127Z,75.50
2022-08-03T18:44:08.129Z,75.60
2022-08-03T18:47:00.349Z,75.70
2022-08-03T18:49:49.071Z,75.60
2022-08-03T18:52:17.649Z,75.70
2022-08-03T18:55:14.069Z,75.60
2022-08-03T18:57:55.534Z,75.80
2022-08-03T19:00:24.224Z,75.90
2022-08-03T19:03:05.216Z,75.80
2022-08-03T19:05:57.774Z,75.90
2022-08-03T19:08:25.968Z,76.00
2022-08-03T19:10:57.644Z,76.00
2022-08-03T19:13:35.960Z,76.10
2022-08-03T19:16:03.355Z,76.10
2022-08-03T19:18:31.491Z,76.10
2022-08-03T19:20:58.579Z,76.10
2022-08-03T19:23:25.471Z,76.20
2022-08-03T19:25:52.927Z,76.20
2022-08-03T19:28:20.945Z,76.20
2022-08-03T19:30:56.802Z,76.70
2022-08-03T19:33:26.429Z,76.20
2022-08-03T19:35:57.429Z,76.30
2022-08-03T19:38:28.567Z,76.20
2022-08-03T19:40:57.512Z,76.10
2022-08-03T19:43:32.918Z,76.20
2022-08-03T19:46:16.905Z,76.20
2022-08-03T19:48:52.008Z,76.30
2022-08-03T19:51:26.982Z,76.30
2022-08-03T19:54:09.414Z,76.40
2022-08-03T19:56:43.085Z,76.40
2022-08-03T19:59:13.486Z,76.30
2022-08-03T20:01:50.673Z,76.50
2022-08-03T20:04:17.983Z,76.30
2022-08-03T20:06:47.866Z,76.50
2022-08-03T20:09:16.770Z,76.40
2022-08-03T20:11:45.131Z,76.30
2022-08-03T20:14:13.314Z,76.40
2022-08-03T20:16:47.993Z,76.40
2022-08-03T20:19:16.655Z,76.40
2022-08-03T20:21:47.350Z,76.40
2022-08-03T20:27:07.963Z,76.60
2022-08-03T20:30:05.147Z,76.50
2022-08-03T20:32:23.610Z,76.50
2022-08-03T20:34:52.005Z,76.70
2022-08-03T20:37:19.866Z,76.60
2022-08-03T20:39:49.383Z,76.70
2022-08-03T20:42:21.164Z,76.70
2022-08-03T20:45:05.069Z,76.70
2022-08-03T20:47:35.675Z,76.70
2022-08-03T20:50:03.813Z,76.80
2022-08-03T20:52:32.373Z,76.70
2022-08-03T20:54:59.903Z,76.80
2022-08-03T20:57:33.036Z,76.70
2022-08-03T21:00:00.643Z,76.70
2022-08-03T21:02:30.322Z,76.70
2022-08-03T21:04:58.409Z,76.70
2022-08-03T21:08:05.436Z,76.90
2022-08-03T21:10:13.604Z,77.40
2022-08-03T21:12:45.476Z,76.80
2022-08-03T21:13:06.785Z,76.30
2022-08-03T21:16:06.835Z,76.80
2022-08-03T21:18:01.270Z,76.90
2022-08-03T21:20:33.154Z,76.90
2022-08-03T21:23:00.577Z,76.90
2022-08-03T21:25:29.037Z,77.20
2022-08-03T21:27:56.170Z,77.10
2022-08-03T21:30:23.969Z,77.10
2022-08-03T21:32:51.848Z,77.20
2022-08-03T21:35:18.750Z,77.20
2022-08-03T21:37:46.428Z,77.40
2022-08-03T21:40:14.872Z,77.40
2022-08-03T21:42:42.638Z,77.30
2022-08-03T21:45:16.588Z,77.40
2022-08-03T21:47:44.063Z,77.40
2022-08-03T21:50:12.011Z,77.40
2022-08-03T21:52:44.194Z,77.40
2022-08-03T21:55:20.307Z,77.50
2022-08-03T21:57:51.258Z,78.10
2022-08-03T22:00:19.112Z,78.10
2022-08-03T22:02:54.827Z,77.30
2022-08-03T22:05:29.204Z,77.30
2022-08-03T22:08:09.719Z,77.00
2022-08-03T22:10:36.889Z,76.30
2022-08-03T22:13:03.581Z,76.20
2022-08-03T22:15:30.459Z,76.20
2022-08-03T22:17:57.534Z,76.40
2022-08-03T22:20:24.361Z,76.40
2022-08-03T22:22:55.695Z,76.50
2022-08-03T22:25:25.039Z,76.50
2022-08-03T22:27:52.562Z,76.50
2022-08-03T22:30:19.611Z,76.50
2022-08-03T22:32:46.552Z,76.40
2022-08-03T22:35:13.997Z,76.50
2022-08-03T22:37:41.369Z,76.50
2022-08-03T22:40:08.323Z,76.40
2022-08-03T22:42:35.291Z,76.20
2022-08-03T22:45:03.514Z,76.30
2022-08-03T22:47:32.209Z,76.50
2022-08-03T22:50:32.893Z,76.40
2022-08-03T22:52:45.873Z,76.30
2022-08-03T22:55:13.774Z,76.30
2022-08-03T22:57:55.627Z,76.10
2022-08-03T23:00:23.311Z,76.10
2022-08-03T23:02:51.233Z,76.10
2022-08-03T23:05:59.623Z,76.10
2022-08-03T23:08:09.729Z,76.10
2022-08-03T23:10:37.378Z,76.00
2022-08-03T23:13:04.674Z,75.70
2022-08-03T23:15:32.847Z,75.90
2022-08-03T23:18:01.427Z,75.70
2022-08-03T23:20:28.904Z,76.20
2022-08-03T23:22:57.640Z,75.70
2022-08-03T23:25:24.797Z,75.90
2022-08-03T23:28:05.241Z,75.70
2022-08-03T23:30:34.511Z,75.70
2022-08-03T23:33:01.839Z,75.60
2022-08-03T23:36:29.006Z,75.50
2022-08-03T23:38:35.051Z,75.60
2022-08-03T23:41:02.394Z,75.60
2022-08-03T23:43:45.150Z,75.70
2022-08-03T23:46:19.796Z,75.50
2022-08-03T23:48:46.556Z,75.40
2022-08-03T23:51:18.415Z,75.60
2022-08-03T23:53:51.501Z,75.30
2022-08-03T23:56:23.880Z,75.30
2022-08-03T23:59:13.571Z,74.90
